createdAt,value
2022-11-28T00:01:39.962Z,100730.94
2022-11-28T00:04:08.293Z,100726.06
2022-11-28T00:06:41.416Z,100740.72
2022-11-28T00:09:09.281Z,100739.72
2022-11-28T00:11:37.328Z,100735.72
2022-11-28T00:14:04.715Z,100742.75
2022-11-28T00:16:32.623Z,100740.25
2022-11-28T00:19:01.342Z,100730.78
2022-11-28T00:21:29.324Z,100743.59
2022-11-28T00:23:57.507Z,100734.38
2022-11-28T00:26:45.044Z,100739.66
2022-11-28T00:29:12.659Z,100729.84
2022-11-28T00:31:44.415Z,100726.34
2022-11-28T00:34:13.573Z,100726.28
2022-11-28T00:36:42.382Z,100736.00
2022-11-28T00:39:09.832Z,100733.09
2022-11-28T00:41:37.162Z,100729.53
2022-11-28T00:44:04.777Z,100733.47
2022-11-28T00:46:32.106Z,100726.09
2022-11-28T00:48:59.669Z,100737.72
2022-11-28T00:51:29.918Z,100738.31
2022-11-28T00:53:59.278Z,100735.63
2022-11-28T00:56:30.791Z,100732.28
2022-11-28T00:58:58.742Z,100732.69
2022-11-28T01:01:34.775Z,100742.37
2022-11-28T01:04:04.966Z,100741.16
2022-11-28T01:06:38.598Z,100739.00
2022-11-28T01:09:11.325Z,100737.06
2022-11-28T01:11:39.868Z,100743.16
2022-11-28T01:14:08.993Z,100725.59
2022-11-28T01:16:36.573Z,100729.56
2022-11-28T01:19:04.048Z,100727.38
2022-11-28T01:21:31.807Z,100725.34
2022-11-28T01:23:59.225Z,100716.19
2022-11-28T01:26:28.655Z,100718.44
2022-11-28T01:28:56.813Z,100725.97
2022-11-28T01:31:26.569Z,100725.47
2022-11-28T01:33:54.144Z,100732.09
2022-11-28T01:36:22.485Z,100718.69
2022-11-28T01:38:50.016Z,100718.16
2022-11-28T01:41:20.434Z,100717.72
2022-11-28T01:44:01.260Z,100716.97
2022-11-28T01:46:29.698Z,100708.50
2022-11-28T01:49:17.900Z,100702.56
2022-11-28T01:51:48.583Z,100693.09
2022-11-28T01:54:16.880Z,100696.28
2022-11-28T01:57:23.731Z,100692.19
2022-11-28T02:00:06.568Z,100690.75
2022-11-28T02:02:52.558Z,100688.47
2022-11-28T02:05:21.418Z,100687.31
2022-11-28T02:07:49.181Z,100679.44
2022-11-28T02:10:25.945Z,100677.34
2022-11-28T02:13:02.967Z,100676.00
2022-11-28T02:15:44.259Z,100669.31
2022-11-28T02:18:36.664Z,100672.78
2022-11-28T02:21:24.929Z,100667.31
2022-11-28T02:24:11.567Z,100668.13
2022-11-28T02:27:03.574Z,100664.94
2022-11-28T02:29:37.215Z,100675.09
2022-11-28T02:32:10.344Z,100659.12
2022-11-28T02:34:52.831Z,100663.97
2022-11-28T02:37:23.167Z,100658.44
2022-11-28T02:40:00.563Z,100663.69
2022-11-28T02:42:43.706Z,100664.41
2022-11-28T02:45:16.818Z,100661.13
2022-11-28T02:47:49.010Z,100661.13
2022-11-28T02:50:26.851Z,100658.56
2022-11-28T02:52:59.615Z,100652.78
2022-11-28T02:55:27.729Z,100647.66
2022-11-28T02:57:55.285Z,100651.53
2022-11-28T03:00:29.388Z,100651.66
2022-11-28T03:03:23.379Z,100645.06
2022-11-28T03:06:16.248Z,100643.13
2022-11-28T03:09:10.552Z,100641.66
2022-11-28T03:12:02.934Z,100649.78
2022-11-28T03:14:36.464Z,100643.09
2022-11-28T03:17:47.207Z,100634.31
2022-11-28T03:20:52.572Z,100635.12
2022-11-28T03:23:23.894Z,100632.31
2022-11-28T03:26:00.188Z,100627.37
2022-11-28T03:28:49.278Z,100626.94
2022-11-28T03:31:22.901Z,100619.19
2022-11-28T03:33:58.607Z,100614.50
2022-11-28T03:36:31.927Z,100615.81
2022-11-28T03:39:09.870Z,100615.50
2022-11-28T03:41:51.176Z,100605.28
2022-11-28T03:44:23.515Z,100603.41
2022-11-28T03:46:52.020Z,100585.81
2022-11-28T03:49:27.744Z,100591.53
2022-11-28T03:51:59.043Z,100585.94
2022-11-28T03:54:41.843Z,100586.47
2022-11-28T03:57:37.316Z,100589.25
2022-11-28T04:00:07.686Z,100587.31
2022-11-28T04:03:18.434Z,100582.34
2022-11-28T04:05:54.217Z,100577.47
2022-11-28T04:08:27.523Z,100576.88
2022-11-28T04:11:24.399Z,100574.16
2022-11-28T04:13:58.382Z,100574.19
2022-11-28T04:16:34.929Z,100572.81
2022-11-28T04:19:10.076Z,100572.72
2022-11-28T04:21:45.079Z,100570.13
2022-11-28T04:24:18.701Z,100570.03
2022-11-28T04:26:52.447Z,100562.84
2022-11-28T04:29:23.201Z,100569.00
2022-11-28T04:31:53.272Z,100566.72
2022-11-28T04:34:21.232Z,100563.72
2022-11-28T04:36:49.406Z,100567.47
2022-11-28T04:39:22.928Z,100563.88
2022-11-28T04:41:53.873Z,100563.78
2022-11-28T04:44:47.644Z,100565.03
2022-11-28T04:47:15.503Z,100568.63
2022-11-28T04:49:43.109Z,100569.78
2022-11-28T04:52:15.083Z,100564.47
2022-11-28T04:54:51.467Z,100560.50
2022-11-28T04:57:50.683Z,100563.25
2022-11-28T05:00:22.123Z,100560.62
2022-11-28T05:02:51.113Z,100556.91
2022-11-28T05:05:22.725Z,100557.19
2022-11-28T05:07:50.361Z,100563.09
2022-11-28T05:10:18.495Z,100562.34
2022-11-28T05:12:46.129Z,100556.75
2022-11-28T05:15:18.916Z,100556.56
2022-11-28T05:17:46.969Z,100562.59
2022-11-28T05:20:14.727Z,100563.00
2022-11-28T05:22:42.106Z,100558.22
2022-11-28T05:25:09.544Z,100566.78
2022-11-28T05:27:37.415Z,100559.69
2022-11-28T05:30:06.686Z,100569.72
2022-11-28T05:32:34.075Z,100569.00
2022-11-28T05:35:01.705Z,100571.63
2022-11-28T05:37:29.081Z,100574.28
2022-11-28T05:39:56.511Z,100581.41
2022-11-28T05:42:25.853Z,100583.63
2022-11-28T05:44:53.172Z,100586.00
2022-11-28T05:47:20.599Z,100588.97
2022-11-28T05:49:48.185Z,100583.91
2022-11-28T05:52:15.513Z,100584.25
2022-11-28T05:54:42.835Z,100584.91
2022-11-28T05:57:10.451Z,100591.50
2022-11-28T05:59:37.810Z,100585.94
2022-11-28T06:02:05.224Z,100593.75
2022-11-28T06:04:32.960Z,100590.34
2022-11-28T06:07:00.299Z,100585.19
2022-11-28T06:09:27.643Z,100585.56
2022-11-28T06:11:55.286Z,100590.66
2022-11-28T06:14:22.657Z,100591.84
2022-11-28T06:16:50.153Z,100599.25
2022-11-28T06:19:18.085Z,100592.41
2022-11-28T06:24:30.655Z,100595.88
2022-11-28T06:26:58.000Z,100586.50
2022-11-28T06:29:25.326Z,100593.03
2022-11-28T06:31:53.140Z,100588.91
2022-11-28T06:34:20.509Z,100584.69
2022-11-28T06:36:47.956Z,100587.28
2022-11-28T06:39:16.779Z,100591.66
2022-11-28T06:41:44.248Z,100589.87
2022-11-28T06:44:15.874Z,100589.44
2022-11-28T06:46:43.993Z,100590.75
2022-11-28T06:49:13.070Z,100588.59
2022-11-28T06:51:41.242Z,100594.16
2022-11-28T06:54:10.007Z,100594.00
2022-11-28T06:56:37.586Z,100597.31
2022-11-28T06:59:05.174Z,100602.72
2022-11-28T07:01:34.338Z,100596.87
2022-11-28T07:04:02.160Z,100603.41
2022-11-28T07:06:30.081Z,100593.53
2022-11-28T07:08:58.917Z,100604.09
2022-11-28T07:11:31.780Z,100605.22
2022-11-28T07:14:02.148Z,100594.69
2022-11-28T07:16:33.912Z,100598.66
2022-11-28T07:19:01.751Z,100596.34
2022-11-28T07:21:30.234Z,100604.47
2022-11-28T07:23:58.969Z,100592.56
2022-11-28T07:26:26.729Z,100596.16
2022-11-28T07:28:56.097Z,100610.22
2022-11-28T07:31:29.327Z,100608.28
2022-11-28T07:33:57.003Z,100601.06
2022-11-28T07:36:26.326Z,100603.41
2022-11-28T07:39:14.102Z,100596.66
2022-11-28T07:41:41.718Z,100596.87
2022-11-28T07:44:10.043Z,100597.31
2022-11-28T07:46:39.093Z,100592.69
2022-11-28T07:49:06.754Z,100594.25
2022-11-28T07:51:34.292Z,100590.97
2022-11-28T07:54:03.163Z,100580.44
2022-11-28T07:57:10.320Z,100575.50
2022-11-28T07:59:21.265Z,100581.16
2022-11-28T08:01:48.944Z,100574.06
2022-11-28T08:04:16.661Z,100567.50
2022-11-28T08:06:44.596Z,100574.47
2022-11-28T08:09:12.221Z,100580.47
2022-11-28T08:11:40.388Z,100580.59
2022-11-28T08:14:07.798Z,100584.44
2022-11-28T08:16:36.664Z,100583.91
2022-11-28T08:19:04.297Z,100586.56
2022-11-28T08:21:35.450Z,100586.19
2022-11-28T08:24:03.959Z,100589.06
2022-11-28T08:26:32.563Z,100585.41
2022-11-28T08:29:01.541Z,100592.97
2022-11-28T08:31:31.547Z,100596.87
2022-11-28T08:34:01.348Z,100590.00
2022-11-28T08:36:29.457Z,100598.47
2022-11-28T08:39:09.855Z,100598.41
2022-11-28T08:41:44.944Z,100605.50
2022-11-28T08:44:12.461Z,100597.25
2022-11-28T08:46:39.829Z,100598.72
2022-11-28T08:49:07.569Z,100597.44
2022-11-28T08:51:34.895Z,100597.00
2022-11-28T08:54:02.209Z,100603.63
2022-11-28T08:56:29.817Z,100593.81
2022-11-28T08:58:57.147Z,100594.59
2022-11-28T09:01:25.940Z,100596.56
2022-11-28T09:03:54.809Z,100595.84
2022-11-28T09:06:22.994Z,100589.06
2022-11-28T09:08:51.330Z,100595.56
2022-11-28T09:11:21.160Z,100585.03
2022-11-28T09:13:48.681Z,100580.06
2022-11-28T09:16:16.392Z,100577.16
2022-11-28T09:18:44.042Z,100580.34
2022-11-28T09:21:13.004Z,100580.94
2022-11-28T09:23:41.759Z,100579.03
2022-11-28T09:26:11.380Z,100583.09
2022-11-28T09:28:38.858Z,100576.16
2022-11-28T09:31:06.815Z,100578.78
2022-11-28T09:33:35.565Z,100579.37
2022-11-28T09:36:11.737Z,100574.41
2022-11-28T09:38:39.891Z,100578.56
2022-11-28T09:41:28.924Z,100568.25
2022-11-28T09:44:24.187Z,100570.25
2022-11-28T09:46:56.371Z,100567.97
2022-11-28T09:49:42.117Z,100563.94
2022-11-28T09:52:20.676Z,100554.53
2022-11-28T09:55:00.511Z,100547.31
2022-11-28T09:57:56.056Z,100539.22
2022-11-28T10:00:38.972Z,100545.87
2022-11-28T10:03:14.816Z,100535.34
2022-11-28T10:06:08.504Z,100533.91
2022-11-28T10:09:35.274Z,100540.56
2022-11-28T10:12:13.602Z,100536.78
2022-11-28T10:15:08.729Z,100537.34
2022-11-28T10:17:48.032Z,100539.63
2022-11-28T10:20:19.384Z,100529.91
2022-11-28T10:22:52.301Z,100520.53
2022-11-28T10:25:29.500Z,100531.75
2022-11-28T10:27:57.570Z,100534.91
2022-11-28T10:30:27.132Z,100530.03
2022-11-28T10:33:23.423Z,100520.12
2022-11-28T10:35:55.430Z,100520.34
2022-11-28T10:38:27.340Z,100515.28
2022-11-28T10:41:06.745Z,100512.25
2022-11-28T10:43:46.460Z,100511.25
2022-11-28T10:46:20.384Z,100506.78
2022-11-28T10:49:10.600Z,100511.22
2022-11-28T10:52:08.052Z,100500.91
2022-11-28T10:55:03.358Z,100499.22
2022-11-28T10:57:35.371Z,100495.53
2022-11-28T11:00:12.251Z,100489.16
2022-11-28T11:03:02.258Z,100488.84
2022-11-28T11:05:37.044Z,100483.56
2022-11-28T11:08:05.561Z,100473.16
2022-11-28T11:10:40.482Z,100480.63
2022-11-28T11:13:26.404Z,100471.31
2022-11-28T11:16:01.245Z,100475.34
2022-11-28T11:18:31.986Z,100484.69
2022-11-28T11:21:20.917Z,100485.66
2022-11-28T11:23:49.537Z,100481.69
2022-11-28T11:26:23.663Z,100469.75
2022-11-28T11:28:51.886Z,100480.63
2022-11-28T11:31:25.136Z,100472.72
2022-11-28T11:34:15.072Z,100476.16
2022-11-28T11:36:42.697Z,100474.09
2022-11-28T11:39:13.257Z,100474.13
2022-11-28T11:41:45.660Z,100472.66
2022-11-28T11:44:26.232Z,100465.16
2022-11-28T11:47:05.276Z,100472.22
2022-11-28T11:49:46.208Z,100467.56
2022-11-28T11:52:13.985Z,100457.34
2022-11-28T11:54:56.888Z,100455.72
2022-11-28T11:57:37.361Z,100470.56
2022-11-28T12:00:07.551Z,100464.59
2022-11-28T12:02:46.957Z,100456.06
2022-11-28T12:05:18.334Z,100446.47
2022-11-28T12:07:50.348Z,100444.75
2022-11-28T12:10:23.566Z,100450.63
2022-11-28T12:12:52.567Z,100452.06
2022-11-28T12:15:40.578Z,100451.69
2022-11-28T12:18:15.587Z,100430.50
2022-11-28T12:20:55.417Z,100443.44
2022-11-28T12:23:52.815Z,100434.56
2022-11-28T12:26:24.702Z,100435.16
2022-11-28T12:29:30.279Z,100430.59
2022-11-28T12:32:19.735Z,100434.59
2022-11-28T12:34:57.765Z,100422.12
2022-11-28T12:37:48.358Z,100429.50
2022-11-28T12:40:38.321Z,100428.59
2022-11-28T12:43:26.425Z,100430.50
2022-11-28T12:46:06.127Z,100425.12
2022-11-28T12:48:39.804Z,100428.59
2022-11-28T12:51:17.958Z,100427.44
2022-11-28T12:53:57.619Z,100420.78
2022-11-28T12:56:42.815Z,100420.94
2022-11-28T12:59:10.369Z,100411.41
2022-11-28T13:02:01.364Z,100418.09
2022-11-28T13:04:42.841Z,100405.31
2022-11-28T13:07:17.954Z,100417.19
2022-11-28T13:10:15.496Z,100407.66
2022-11-28T13:12:59.270Z,100408.66
2022-11-28T13:15:51.858Z,100405.75
2022-11-28T13:18:46.118Z,100409.56
2022-11-28T13:21:18.861Z,100396.13
2022-11-28T13:23:49.054Z,100394.34
2022-11-28T13:26:59.136Z,100399.66
2022-11-28T13:29:44.724Z,100401.75
2022-11-28T13:32:35.367Z,100401.84
2022-11-28T13:35:03.600Z,100395.56
2022-11-28T13:40:42.720Z,100400.22
2022-11-28T13:43:24.867Z,100402.56
2022-11-28T13:49:06.060Z,100392.31
2022-11-28T13:51:31.960Z,100391.25
2022-11-28T13:54:18.895Z,100391.22
2022-11-28T13:56:47.931Z,100388.78
2022-11-28T13:59:18.915Z,100391.28
2022-11-28T14:01:52.566Z,100390.94
2022-11-28T14:04:20.916Z,100382.69
2022-11-28T14:06:52.201Z,100378.50
2022-11-28T14:10:08.709Z,100385.66
2022-11-28T14:12:50.874Z,100381.50
2022-11-28T14:15:32.893Z,100383.28
2022-11-28T14:18:55.092Z,100382.53
2022-11-28T14:21:38.761Z,100375.72
2022-11-28T14:24:20.496Z,100384.75
2022-11-28T14:26:57.274Z,100377.16
2022-11-28T14:29:28.741Z,100381.44
2022-11-28T14:32:27.864Z,100374.62
2022-11-28T14:34:46.756Z,100373.56
2022-11-28T14:37:52.092Z,100373.19
2022-11-28T14:40:56.882Z,100375.09
2022-11-28T14:43:24.582Z,100375.03
2022-11-28T14:45:52.683Z,100373.09
2022-11-28T14:48:23.181Z,100375.28
2022-11-28T14:50:59.086Z,100372.37
2022-11-28T14:53:45.861Z,100378.09
2022-11-28T14:56:24.076Z,100377.22
2022-11-28T14:58:56.481Z,100375.69
2022-11-28T15:01:30.856Z,100376.56
2022-11-28T15:04:17.642Z,100375.13
2022-11-28T15:06:48.031Z,100377.94
2022-11-28T15:09:43.747Z,100380.13
2022-11-28T15:12:26.762Z,100381.88
2022-11-28T15:14:57.876Z,100375.59
2022-11-28T15:17:30.682Z,100374.69
2022-11-28T15:19:59.298Z,100382.28
2022-11-28T15:22:39.039Z,100389.63
2022-11-28T15:25:26.007Z,100381.12
2022-11-28T15:27:55.450Z,100384.78
2022-11-28T15:30:26.864Z,100379.66
2022-11-28T15:33:00.583Z,100369.16
2022-11-28T15:35:28.626Z,100386.00
2022-11-28T15:37:58.100Z,100380.03
2022-11-28T15:40:29.333Z,100384.03
2022-11-28T15:42:57.141Z,100393.00
2022-11-28T15:45:27.099Z,100389.81
2022-11-28T15:47:55.892Z,100397.09
2022-11-28T15:50:26.371Z,100394.72
2022-11-28T15:52:55.591Z,100396.19
2022-11-28T15:55:24.431Z,100393.75
2022-11-28T15:57:52.066Z,100395.09
2022-11-28T16:00:21.896Z,100399.56
2022-11-28T16:02:49.776Z,100401.81
2022-11-28T16:05:21.732Z,100406.34
2022-11-28T16:07:51.275Z,100404.56
2022-11-28T16:10:38.011Z,100401.25
2022-11-28T16:13:12.068Z,100408.50
2022-11-28T16:15:39.999Z,100403.84
2022-11-28T16:18:08.256Z,100401.75
2022-11-28T16:20:37.049Z,100407.13
2022-11-28T16:23:10.410Z,100410.22
2022-11-28T16:25:38.884Z,100409.28
2022-11-28T16:28:36.971Z,100411.94
2022-11-28T16:31:18.373Z,100410.81
2022-11-28T16:33:47.805Z,100408.31
2022-11-28T16:36:20.123Z,100398.81
2022-11-28T16:38:49.520Z,100397.91
2022-11-28T16:41:20.869Z,100398.72
2022-11-28T16:44:15.905Z,100401.16
2022-11-28T16:46:55.201Z,100393.47
2022-11-28T16:49:31.860Z,100399.94
2022-11-28T16:52:21.551Z,100403.81
2022-11-28T16:55:13.917Z,100404.06
2022-11-28T16:57:46.471Z,100409.53
2022-11-28T17:00:15.082Z,100409.28
2022-11-28T17:02:43.680Z,100404.13
2022-11-28T17:05:12.504Z,100408.97
2022-11-28T17:07:41.545Z,100405.53
2022-11-28T17:10:13.197Z,100406.66
2022-11-28T17:12:41.926Z,100409.59
2022-11-28T17:15:15.999Z,100411.28
2022-11-28T17:17:44.364Z,100413.50
2022-11-28T17:20:13.243Z,100406.81
2022-11-28T17:22:46.915Z,100411.13
2022-11-28T17:25:19.914Z,100414.62
2022-11-28T17:27:48.432Z,100406.84
2022-11-28T17:30:18.939Z,100408.12
2022-11-28T17:32:48.373Z,100401.59
2022-11-28T17:35:20.366Z,100412.12
2022-11-28T17:37:48.108Z,100400.81
2022-11-28T17:40:34.296Z,100406.75
2022-11-28T17:43:05.645Z,100408.78
2022-11-28T17:45:37.739Z,100411.06
2022-11-28T17:48:08.158Z,100408.97
2022-11-28T17:50:36.846Z,100408.91
2022-11-28T17:53:04.949Z,100417.38
2022-11-28T17:55:33.863Z,100414.72
2022-11-28T17:58:03.192Z,100407.50
2022-11-28T18:00:33.142Z,100413.31
2022-11-28T18:03:01.351Z,100412.69
2022-11-28T18:05:29.231Z,100412.53
2022-11-28T18:07:57.285Z,100412.16
2022-11-28T18:10:25.535Z,100419.06
2022-11-28T18:12:53.456Z,100424.00
2022-11-28T18:15:21.903Z,100431.13
2022-11-28T18:17:50.255Z,100419.63
2022-11-28T18:20:20.421Z,100421.19
2022-11-28T18:22:48.408Z,100422.03
2022-11-28T18:25:16.747Z,100421.62
2022-11-28T18:27:44.795Z,100425.53
2022-11-28T18:30:15.073Z,100423.13
2022-11-28T18:32:44.868Z,100418.59
2022-11-28T18:35:12.854Z,100421.00
2022-11-28T18:37:44.047Z,100416.63
2022-11-28T18:40:12.628Z,100424.13
2022-11-28T18:42:45.148Z,100417.41
2022-11-28T18:45:13.826Z,100422.38
2022-11-28T18:47:42.956Z,100421.00
2022-11-28T18:50:12.971Z,100424.41
2022-11-28T18:52:41.311Z,100425.56
2022-11-28T18:55:11.022Z,100422.19
2022-11-28T18:57:39.079Z,100421.72
2022-11-28T19:00:08.262Z,100416.19
2022-11-28T19:02:36.637Z,100413.84
2022-11-28T19:05:04.906Z,100420.25
2022-11-28T19:07:33.410Z,100411.66
2022-11-28T19:10:01.651Z,100411.09
2022-11-28T19:12:29.570Z,100414.94
2022-11-28T19:15:02.124Z,100408.84
2022-11-28T19:17:30.882Z,100409.91
2022-11-28T19:19:58.684Z,100414.50
2022-11-28T19:22:26.473Z,100415.34
2022-11-28T19:24:54.479Z,100415.00
2022-11-28T19:27:22.986Z,100415.78
2022-11-28T19:29:51.960Z,100417.19
2022-11-28T19:32:20.007Z,100415.78
2022-11-28T19:34:53.224Z,100417.00
2022-11-28T19:37:22.105Z,100419.56
2022-11-28T19:39:50.302Z,100425.09
2022-11-28T19:42:18.591Z,100417.38
2022-11-28T19:44:46.669Z,100426.50
2022-11-28T19:47:15.901Z,100427.75
2022-11-28T19:49:44.178Z,100426.44
2022-11-28T19:52:11.872Z,100424.38
2022-11-28T19:54:40.291Z,100426.50
2022-11-28T19:57:11.658Z,100425.31
2022-11-28T19:59:39.886Z,100422.31
2022-11-28T20:02:09.597Z,100416.41
2022-11-28T20:04:38.807Z,100419.38
2022-11-28T20:07:08.194Z,100420.00
2022-11-28T20:09:36.571Z,100426.91
2022-11-28T20:12:05.749Z,100419.28
2022-11-28T20:14:39.815Z,100412.50
2022-11-28T20:17:08.264Z,100410.22
2022-11-28T20:19:37.725Z,100415.09
2022-11-28T20:22:05.617Z,100416.25
2022-11-28T20:24:34.106Z,100411.75
2022-11-28T20:27:02.083Z,100413.28
2022-11-28T20:29:30.690Z,100424.31
2022-11-28T20:31:58.659Z,100416.84
2022-11-28T20:34:27.345Z,100415.91
2022-11-28T20:36:55.417Z,100427.28
2022-11-28T20:39:24.717Z,100419.84
2022-11-28T20:41:53.921Z,100424.88
2022-11-28T20:44:21.954Z,100420.88
2022-11-28T20:46:50.489Z,100421.97
2022-11-28T20:49:18.853Z,100423.53
2022-11-28T20:51:47.176Z,100428.62
2022-11-28T20:54:15.814Z,100418.19
2022-11-28T20:57:19.797Z,100420.00
2022-11-28T20:59:33.440Z,100420.78
2022-11-28T21:02:01.394Z,100425.25
2022-11-28T21:04:29.111Z,100426.00
2022-11-28T21:06:57.107Z,100416.41
2022-11-28T21:09:28.648Z,100416.84
2022-11-28T21:11:59.036Z,100429.56
2022-11-28T21:14:30.147Z,100430.53
2022-11-28T21:16:58.530Z,100431.56
2022-11-28T21:19:26.388Z,100427.06
2022-11-28T21:21:55.845Z,100428.88
2022-11-28T21:24:23.813Z,100425.12
2022-11-28T21:26:54.400Z,100426.78
2022-11-28T21:29:23.599Z,100425.53
2022-11-28T21:31:52.111Z,100432.31
2022-11-28T21:34:19.832Z,100432.97
2022-11-28T21:36:47.591Z,100430.44
2022-11-28T21:39:17.630Z,100427.91
2022-11-28T21:41:45.245Z,100426.00
2022-11-28T21:44:12.876Z,100423.72
2022-11-28T21:46:41.664Z,100425.00
2022-11-28T21:49:08.982Z,100416.56
2022-11-28T21:51:37.329Z,100424.13
2022-11-28T21:54:04.813Z,100420.50
2022-11-28T21:56:32.408Z,100423.09
2022-11-28T21:59:00.004Z,100425.47
2022-11-28T22:01:27.581Z,100425.75
2022-11-28T22:03:59.135Z,100434.59
2022-11-28T22:06:29.903Z,100422.69
2022-11-28T22:08:57.938Z,100425.50
2022-11-28T22:11:25.670Z,100420.34
2022-11-28T22:13:53.114Z,100418.75
2022-11-28T22:16:23.629Z,100416.34
2022-11-28T22:18:53.573Z,100430.69
2022-11-28T22:21:50.528Z,100426.91
2022-11-28T22:24:09.006Z,100419.31
2022-11-28T22:26:36.709Z,100420.25
2022-11-28T22:29:04.487Z,100425.34
2022-11-28T22:31:32.446Z,100429.41
2022-11-28T22:34:00.119Z,100420.78
2022-11-28T22:36:27.670Z,100420.81
2022-11-28T22:38:56.970Z,100423.31
2022-11-28T22:41:28.756Z,100421.34
2022-11-28T22:44:00.191Z,100416.28
2022-11-28T22:46:28.401Z,100419.28
2022-11-28T22:48:56.055Z,100414.59
2022-11-28T22:51:25.431Z,100413.03
2022-11-28T22:53:54.845Z,100413.06
2022-11-28T22:56:24.437Z,100408.28
2022-11-28T22:58:52.112Z,100412.72
2022-11-28T23:01:30.384Z,100417.00
2022-11-28T23:03:58.283Z,100419.94
2022-11-28T23:06:31.349Z,100423.69
2022-11-28T23:08:59.802Z,100426.31
2022-11-28T23:11:33.311Z,100423.44
2022-11-28T23:14:01.480Z,100413.22
2022-11-28T23:16:32.385Z,100419.22
2022-11-28T23:19:03.477Z,100422.69
2022-11-28T23:21:35.638Z,100422.31
2022-11-28T23:24:04.733Z,100417.22
2022-11-28T23:26:33.963Z,100421.47
2022-11-28T23:29:04.221Z,100430.94
2022-11-28T23:31:33.748Z,100419.91
2022-11-28T23:34:01.644Z,100421.13
2022-11-28T23:36:31.315Z,100421.09
2022-11-28T23:39:01.441Z,100426.87
2022-11-28T23:41:29.708Z,100428.34
2022-11-28T23:43:57.838Z,100426.19
2022-11-28T23:46:26.390Z,100421.66
2022-11-28T23:48:53.935Z,100418.59
2022-11-28T23:51:24.488Z,100414.34
2022-11-28T23:53:52.433Z,100409.66
2022-11-28T23:56:24.935Z,100408.38
2022-11-28T23:58:53.622Z,100404.25
